sensor_id;sensor_type;location;lat;lon;timestamp;P1;durP1;ratioP1;P2;durP2;ratioP2
13185;SDS011;6658;53.080;7.428;2023-04-25T00:00:35;9.70;;;3.13;;
13185;SDS011;6658;53.080;7.428;2023-04-25T00:03:00;8.30;;;2.57;;
13185;SDS011;6658;53.080;7.428;2023-04-25T00:05:26;10.30;;;2.10;;
13185;SDS011;6658;53.080;7.428;2023-04-25T00:07:52;8.07;;;2.43;;
13185;SDS011;6658;53.080;7.428;2023-04-25T00:10:18;8.67;;;1.80;;
13185;SDS011;6658;53.080;7.428;2023-04-25T00:12:45;7.80;;;2.27;;
13185;SDS011;6658;53.080;7.428;2023-04-25T00:15:11;8.53;;;2.33;;
13185;SDS011;6658;53.080;7.428;2023-04-25T00:17:37;14.33;;;3.47;;
13185;SDS011;6658;53.080;7.428;2023-04-25T00:20:06;10.37;;;2.90;;
13185;SDS011;6658;53.080;7.428;2023-04-25T00:22:34;9.30;;;2.80;;
13185;SDS011;6658;53.080;7.428;2023-04-25T00:25:02;10.97;;;4.17;;
13185;SDS011;6658;53.080;7.428;2023-04-25T00:27:31;11.27;;;3.53;;
13185;SDS011;6658;53.080;7.428;2023-04-25T00:29:57;11.93;;;2.87;;
13185;SDS011;6658;53.080;7.428;2023-04-25T00:32:23;12.93;;;3.13;;
13185;SDS011;6658;53.080;7.428;2023-04-25T00:34:49;10.60;;;3.37;;
13185;SDS011;6658;53.080;7.428;2023-04-25T00:37:15;9.97;;;2.77;;
13185;SDS011;6658;53.080;7.428;2023-04-25T00:39:40;8.50;;;2.60;;
13185;SDS011;6658;53.080;7.428;2023-04-25T00:42:06;8.53;;;2.00;;
13185;SDS011;6658;53.080;7.428;2023-04-25T00:44:33;8.17;;;2.73;;
13185;SDS011;6658;53.080;7.428;2023-04-25T00:47:01;12.07;;;2.80;;
13185;SDS011;6658;53.080;7.428;2023-04-25T00:49:28;6.87;;;2.10;;
13185;SDS011;6658;53.080;7.428;2023-04-25T00:51:53;12.50;;;3.23;;
13185;SDS011;6658;53.080;7.428;2023-04-25T00:54:20;8.97;;;2.47;;
13185;SDS011;6658;53.080;7.428;2023-04-25T00:56:45;10.07;;;2.90;;
13185;SDS011;6658;53.080;7.428;2023-04-25T00:59:11;9.90;;;2.40;;
13185;SDS011;6658;53.080;7.428;2023-04-25T01:01:38;8.70;;;2.67;;
13185;SDS011;6658;53.080;7.428;2023-04-25T01:04:05;6.17;;;2.87;;
13185;SDS011;6658;53.080;7.428;2023-04-25T01:06:30;9.43;;;2.40;;
13185;SDS011;6658;53.080;7.428;2023-04-25T01:08:56;7.67;;;2.30;;
13185;SDS011;6658;53.080;7.428;2023-04-25T01:11:23;8.23;;;2.50;;
13185;SDS011;6658;53.080;7.428;2023-04-25T01:13:49;6.77;;;2.03;;
13185;SDS011;6658;53.080;7.428;2023-04-25T01:16:15;6.13;;;2.73;;
13185;SDS011;6658;53.080;7.428;2023-04-25T01:18:41;5.37;;;2.00;;
13185;SDS011;6658;53.080;7.428;2023-04-25T01:21:08;7.47;;;2.40;;
13185;SDS011;6658;53.080;7.428;2023-04-25T01:23:35;8.60;;;2.87;;
13185;SDS011;6658;53.080;7.428;2023-04-25T01:26:02;8.20;;;2.53;;
13185;SDS011;6658;53.080;7.428;2023-04-25T01:28:28;10.70;;;4.67;;
13185;SDS011;6658;53.080;7.428;2023-04-25T01:33:25;6.43;;;2.37;;
13185;SDS011;6658;53.080;7.428;2023-04-25T01:38:19;5.93;;;2.20;;
13185;SDS011;6658;53.080;7.428;2023-04-25T01:40:45;10.93;;;2.33;;
13185;SDS011;6658;53.080;7.428;2023-04-25T01:43:12;12.07;;;2.87;;
13185;SDS011;6658;53.080;7.428;2023-04-25T01:45:39;7.50;;;2.83;;
13185;SDS011;6658;53.080;7.428;2023-04-25T01:48:10;7.90;;;2.63;;
13185;SDS011;6658;53.080;7.428;2023-04-25T01:50:38;6.47;;;2.60;;
13185;SDS011;6658;53.080;7.428;2023-04-25T01:53:05;9.07;;;2.47;;
13185;SDS011;6658;53.080;7.428;2023-04-25T01:55:31;6.47;;;2.03;;
13185;SDS011;6658;53.080;7.428;2023-04-25T01:57:56;11.53;;;3.67;;
13185;SDS011;6658;53.080;7.428;2023-04-25T02:00:23;6.00;;;2.97;;
13185;SDS011;6658;53.080;7.428;2023-04-25T02:02:49;9.87;;;2.80;;
13185;SDS011;6658;53.080;7.428;2023-04-25T02:05:16;8.30;;;2.20;;
13185;SDS011;6658;53.080;7.428;2023-04-25T02:07:42;5.27;;;3.03;;
13185;SDS011;6658;53.080;7.428;2023-04-25T02:10:08;9.07;;;2.50;;
13185;SDS011;6658;53.080;7.428;2023-04-25T02:12:35;8.07;;;2.50;;
13185;SDS011;6658;53.080;7.428;2023-04-25T02:15:01;8.83;;;2.37;;
13185;SDS011;6658;53.080;7.428;2023-04-25T02:17:27;8.77;;;2.10;;
13185;SDS011;6658;53.080;7.428;2023-04-25T02:19:53;6.87;;;1.97;;
13185;SDS011;6658;53.080;7.428;2023-04-25T02:22:18;11.23;;;2.00;;
13185;SDS011;6658;53.080;7.428;2023-04-25T02:24:44;7.97;;;1.63;;
13185;SDS011;6658;53.080;7.428;2023-04-25T02:27:10;7.17;;;1.60;;
13185;SDS011;6658;53.080;7.428;2023-04-25T02:29:36;6.93;;;2.17;;
13185;SDS011;6658;53.080;7.428;2023-04-25T02:32:02;6.50;;;1.93;;
13185;SDS011;6658;53.080;7.428;2023-04-25T02:34:27;4.83;;;2.00;;
13185;SDS011;6658;53.080;7.428;2023-04-25T02:36:53;7.63;;;2.13;;
13185;SDS011;6658;53.080;7.428;2023-04-25T02:39:19;5.67;;;1.70;;
13185;SDS011;6658;53.080;7.428;2023-04-25T02:41:47;5.80;;;1.70;;
13185;SDS011;6658;53.080;7.428;2023-04-25T02:44:12;3.50;;;1.37;;
13185;SDS011;6658;53.080;7.428;2023-04-25T02:46:38;8.23;;;2.20;;
13185;SDS011;6658;53.080;7.428;2023-04-25T02:49:04;6.00;;;2.20;;
13185;SDS011;6658;53.080;7.428;2023-04-25T02:51:30;8.27;;;2.60;;
13185;SDS011;6658;53.080;7.428;2023-04-25T02:53:56;5.70;;;2.00;;
13185;SDS011;6658;53.080;7.428;2023-04-25T02:56:21;5.17;;;1.67;;
13185;SDS011;6658;53.080;7.428;2023-04-25T02:58:47;4.80;;;1.80;;
13185;SDS011;6658;53.080;7.428;2023-04-25T03:01:13;5.23;;;1.43;;
13185;SDS011;6658;53.080;7.428;2023-04-25T03:03:39;5.20;;;2.37;;
13185;SDS011;6658;53.080;7.428;2023-04-25T03:06:04;5.93;;;1.97;;
13185;SDS011;6658;53.080;7.428;2023-04-25T03:08:30;6.33;;;1.67;;
13185;SDS011;6658;53.080;7.428;2023-04-25T03:10:57;6.10;;;2.07;;
13185;SDS011;6658;53.080;7.428;2023-04-25T03:13:23;6.90;;;2.07;;
13185;SDS011;6658;53.080;7.428;2023-04-25T03:15:49;5.27;;;1.53;;
13185;SDS011;6658;53.080;7.428;2023-04-25T03:18:15;3.37;;;1.23;;
13185;SDS011;6658;53.080;7.428;2023-04-25T03:20:41;5.10;;;1.90;;
13185;SDS011;6658;53.080;7.428;2023-04-25T03:23:07;5.77;;;1.70;;
13185;SDS011;6658;53.080;7.428;2023-04-25T03:25:33;5.13;;;2.00;;
13185;SDS011;6658;53.080;7.428;2023-04-25T03:27:59;4.43;;;1.50;;
13185;SDS011;6658;53.080;7.428;2023-04-25T03:30:25;4.50;;;1.30;;
13185;SDS011;6658;53.080;7.428;2023-04-25T03:32:50;4.57;;;1.13;;
13185;SDS011;6658;53.080;7.428;2023-04-25T03:35:16;4.70;;;1.90;;
13185;SDS011;6658;53.080;7.428;2023-04-25T03:37:41;3.67;;;1.40;;
13185;SDS011;6658;53.080;7.428;2023-04-25T03:40:10;4.13;;;2.00;;
13185;SDS011;6658;53.080;7.428;2023-04-25T03:42:36;6.73;;;1.60;;
13185;SDS011;6658;53.080;7.428;2023-04-25T03:45:02;2.67;;;1.33;;
13185;SDS011;6658;53.080;7.428;2023-04-25T03:47:31;2.53;;;1.20;;
13185;SDS011;6658;53.080;7.428;2023-04-25T03:49:57;6.50;;;1.30;;
13185;SDS011;6658;53.080;7.428;2023-04-25T03:52:23;3.03;;;1.00;;
13185;SDS011;6658;53.080;7.428;2023-04-25T03:54:48;4.57;;;1.50;;
13185;SDS011;6658;53.080;7.428;2023-04-25T03:57:14;4.27;;;1.10;;
13185;SDS011;6658;53.080;7.428;2023-04-25T03:59:40;3.67;;;1.30;;
13185;SDS011;6658;53.080;7.428;2023-04-25T04:02:06;2.97;;;1.30;;
13185;SDS011;6658;53.080;7.428;2023-04-25T04:04:31;3.33;;;1.37;;
13185;SDS011;6658;53.080;7.428;2023-04-25T04:06:57;4.57;;;1.40;;
13185;SDS011;6658;53.080;7.428;2023-04-25T04:09:23;3.23;;;1.10;;
13185;SDS011;6658;53.080;7.428;2023-04-25T04:11:48;4.40;;;0.90;;
13185;SDS011;6658;53.080;7.428;2023-04-25T04:14:14;2.60;;;0.90;;
13185;SDS011;6658;53.080;7.428;2023-04-25T04:16:40;3.83;;;1.40;;
13185;SDS011;6658;53.080;7.428;2023-04-25T04:19:06;2.50;;;1.00;;
13185;SDS011;6658;53.080;7.428;2023-04-25T04:21:32;6.27;;;1.83;;
13185;SDS011;6658;53.080;7.428;2023-04-25T04:23:58;3.07;;;1.30;;
13185;SDS011;6658;53.080;7.428;2023-04-25T04:26:25;4.67;;;1.33;;
13185;SDS011;6658;53.080;7.428;2023-04-25T04:28:51;2.53;;;1.20;;
13185;SDS011;6658;53.080;7.428;2023-04-25T04:31:19;3.77;;;1.47;;
13185;SDS011;6658;53.080;7.428;2023-04-25T04:33:46;3.93;;;1.07;;
13185;SDS011;6658;53.080;7.428;2023-04-25T04:36:12;2.87;;;1.37;;
13185;SDS011;6658;53.080;7.428;2023-04-25T04:38:38;2.47;;;1.20;;
13185;SDS011;6658;53.080;7.428;2023-04-25T04:41:03;3.23;;;1.43;;
13185;SDS011;6658;53.080;7.428;2023-04-25T04:43:29;4.50;;;1.53;;
13185;SDS011;6658;53.080;7.428;2023-04-25T04:45:55;5.07;;;1.33;;
13185;SDS011;6658;53.080;7.428;2023-04-25T04:48:21;3.57;;;1.30;;
13185;SDS011;6658;53.080;7.428;2023-04-25T04:50:47;3.47;;;1.83;;
13185;SDS011;6658;53.080;7.428;2023-04-25T04:53:13;4.37;;;1.37;;
13185;SDS011;6658;53.080;7.428;2023-04-25T04:55:39;4.70;;;1.40;;
13185;SDS011;6658;53.080;7.428;2023-04-25T04:58:06;5.93;;;1.63;;
13185;SDS011;6658;53.080;7.428;2023-04-25T05:00:32;3.37;;;1.80;;
13185;SDS011;6658;53.080;7.428;2023-04-25T05:02:58;4.17;;;1.03;;
13185;SDS011;6658;53.080;7.428;2023-04-25T05:05:24;3.50;;;1.17;;
13185;SDS011;6658;53.080;7.428;2023-04-25T05:07:50;5.07;;;1.43;;
13185;SDS011;6658;53.080;7.428;2023-04-25T05:10:17;5.33;;;1.40;;
13185;SDS011;6658;53.080;7.428;2023-04-25T05:12:43;7.53;;;2.70;;
13185;SDS011;6658;53.080;7.428;2023-04-25T05:15:10;6.20;;;1.40;;
13185;SDS011;6658;53.080;7.428;2023-04-25T05:17:36;4.53;;;1.23;;
13185;SDS011;6658;53.080;7.428;2023-04-25T05:20:02;5.17;;;1.50;;
13185;SDS011;6658;53.080;7.428;2023-04-25T05:22:29;6.10;;;1.40;;
13185;SDS011;6658;53.080;7.428;2023-04-25T05:24:54;5.90;;;1.70;;
13185;SDS011;6658;53.080;7.428;2023-04-25T05:27:20;5.37;;;1.80;;
13185;SDS011;6658;53.080;7.428;2023-04-25T05:29:46;4.33;;;1.63;;
13185;SDS011;6658;53.080;7.428;2023-04-25T05:32:12;5.57;;;1.40;;
13185;SDS011;6658;53.080;7.428;2023-04-25T05:34:37;2.70;;;1.20;;
13185;SDS011;6658;53.080;7.428;2023-04-25T05:37:03;4.33;;;1.37;;
13185;SDS011;6658;53.080;7.428;2023-04-25T05:39:29;3.53;;;1.40;;
13185;SDS011;6658;53.080;7.428;2023-04-25T05:41:55;5.43;;;1.57;;
13185;SDS011;6658;53.080;7.428;2023-04-25T05:44:20;5.20;;;1.27;;
13185;SDS011;6658;53.080;7.428;2023-04-25T05:46:46;3.03;;;1.33;;
13185;SDS011;6658;53.080;7.428;2023-04-25T05:49:12;4.03;;;1.67;;
13185;SDS011;6658;53.080;7.428;2023-04-25T05:51:38;5.10;;;1.23;;
13185;SDS011;6658;53.080;7.428;2023-04-25T05:54:03;4.53;;;1.90;;
13185;SDS011;6658;53.080;7.428;2023-04-25T05:56:29;6.37;;;1.33;;
13185;SDS011;6658;53.080;7.428;2023-04-25T05:58:55;5.13;;;1.30;;
13185;SDS011;6658;53.080;7.428;2023-04-25T06:01:22;5.47;;;1.30;;
13185;SDS011;6658;53.080;7.428;2023-04-25T06:03:48;2.67;;;1.17;;
13185;SDS011;6658;53.080;7.428;2023-04-25T06:06:14;2.10;;;1.00;;
13185;SDS011;6658;53.080;7.428;2023-04-25T06:08:40;4.87;;;1.20;;
13185;SDS011;6658;53.080;7.428;2023-04-25T06:11:06;3.60;;;1.13;;
13185;SDS011;6658;53.080;7.428;2023-04-25T06:13:32;2.83;;;1.50;;
13185;SDS011;6658;53.080;7.428;2023-04-25T06:15:58;3.90;;;1.43;;
13185;SDS011;6658;53.080;7.428;2023-04-25T06:18:23;4.47;;;1.23;;
13185;SDS011;6658;53.080;7.428;2023-04-25T06:20:49;2.30;;;1.20;;
13185;SDS011;6658;53.080;7.428;2023-04-25T06:23:15;8.80;;;1.47;;
13185;SDS011;6658;53.080;7.428;2023-04-25T06:25:40;1.43;;;0.90;;
13185;SDS011;6658;53.080;7.428;2023-04-25T06:28:06;5.33;;;1.43;;
13185;SDS011;6658;53.080;7.428;2023-04-25T06:30:32;3.57;;;1.43;;
13185;SDS011;6658;53.080;7.428;2023-04-25T06:32:58;5.10;;;1.30;;
13185;SDS011;6658;53.080;7.428;2023-04-25T06:35:23;2.17;;;0.80;;
13185;SDS011;6658;53.080;7.428;2023-04-25T06:37:49;3.33;;;1.30;;
13185;SDS011;6658;53.080;7.428;2023-04-25T06:40:15;2.73;;;1.00;;
13185;SDS011;6658;53.080;7.428;2023-04-25T06:42:42;4.13;;;1.10;;
13185;SDS011;6658;53.080;7.428;2023-04-25T06:45:08;3.50;;;1.20;;
13185;SDS011;6658;53.080;7.428;2023-04-25T06:47:34;4.47;;;1.13;;
13185;SDS011;6658;53.080;7.428;2023-04-25T06:49:59;1.90;;;0.67;;
13185;SDS011;6658;53.080;7.428;2023-04-25T06:52:25;2.53;;;1.00;;
13185;SDS011;6658;53.080;7.428;2023-04-25T06:54:51;1.90;;;0.87;;
13185;SDS011;6658;53.080;7.428;2023-04-25T06:57:16;1.00;;;0.90;;
13185;SDS011;6658;53.080;7.428;2023-04-25T06:59:42;2.07;;;0.80;;
13185;SDS011;6658;53.080;7.428;2023-04-25T07:02:08;3.30;;;1.17;;
13185;SDS011;6658;53.080;7.428;2023-04-25T07:04:33;3.83;;;1.23;;
13185;SDS011;6658;53.080;7.428;2023-04-25T07:06:59;3.77;;;1.27;;
13185;SDS011;6658;53.080;7.428;2023-04-25T07:09:27;2.50;;;1.30;;
13185;SDS011;6658;53.080;7.428;2023-04-25T07:11:53;5.00;;;1.17;;
13185;SDS011;6658;53.080;7.428;2023-04-25T07:14:19;5.00;;;1.03;;
13185;SDS011;6658;53.080;7.428;2023-04-25T07:16:45;3.33;;;1.00;;
13185;SDS011;6658;53.080;7.428;2023-04-25T07:19:11;3.63;;;1.00;;
13185;SDS011;6658;53.080;7.428;2023-04-25T07:21:37;4.37;;;1.10;;
13185;SDS011;6658;53.080;7.428;2023-04-25T07:24:03;5.13;;;1.10;;
13185;SDS011;6658;53.080;7.428;2023-04-25T07:26:29;0.90;;;0.70;;
13185;SDS011;6658;53.080;7.428;2023-04-25T07:28:54;4.00;;;1.23;;
13185;SDS011;6658;53.080;7.428;2023-04-25T07:31:20;2.87;;;1.00;;
13185;SDS011;6658;53.080;7.428;2023-04-25T07:33:46;4.57;;;1.03;;
13185;SDS011;6658;53.080;7.428;2023-04-25T07:36:12;4.10;;;1.23;;
13185;SDS011;6658;53.080;7.428;2023-04-25T07:38:40;2.90;;;1.40;;
13185;SDS011;6658;53.080;7.428;2023-04-25T07:41:05;6.67;;;0.77;;
13185;SDS011;6658;53.080;7.428;2023-04-25T07:43:32;2.50;;;0.97;;
13185;SDS011;6658;53.080;7.428;2023-04-25T07:45:57;4.23;;;1.10;;
13185;SDS011;6658;53.080;7.428;2023-04-25T07:48:23;4.63;;;1.37;;
13185;SDS011;6658;53.080;7.428;2023-04-25T07:50:49;2.40;;;0.77;;
13185;SDS011;6658;53.080;7.428;2023-04-25T07:53:15;4.60;;;0.93;;
13185;SDS011;6658;53.080;7.428;2023-04-25T07:55:43;2.00;;;0.70;;
13185;SDS011;6658;53.080;7.428;2023-04-25T07:58:08;2.53;;;0.80;;
13185;SDS011;6658;53.080;7.428;2023-04-25T08:00:35;4.07;;;1.10;;
13185;SDS011;6658;53.080;7.428;2023-04-25T08:03:01;6.00;;;1.03;;
13185;SDS011;6658;53.080;7.428;2023-04-25T08:05:27;2.50;;;1.13;;
13185;SDS011;6658;53.080;7.428;2023-04-25T08:07:53;3.00;;;1.30;;
13185;SDS011;6658;53.080;7.428;2023-04-25T08:10:19;3.00;;;1.20;;
13185;SDS011;6658;53.080;7.428;2023-04-25T08:12:45;3.30;;;1.13;;
13185;SDS011;6658;53.080;7.428;2023-04-25T08:15:11;4.27;;;1.60;;
13185;SDS011;6658;53.080;7.428;2023-04-25T08:17:38;2.43;;;0.80;;
13185;SDS011;6658;53.080;7.428;2023-04-25T08:20:04;4.70;;;0.90;;
13185;SDS011;6658;53.080;7.428;2023-04-25T08:22:31;3.03;;;0.90;;
13185;SDS011;6658;53.080;7.428;2023-04-25T08:24:57;1.57;;;0.80;;
13185;SDS011;6658;53.080;7.428;2023-04-25T08:27:22;4.57;;;0.87;;
13185;SDS011;6658;53.080;7.428;2023-04-25T08:29:48;2.50;;;1.07;;
13185;SDS011;6658;53.080;7.428;2023-04-25T08:32:15;1.93;;;0.70;;
13185;SDS011;6658;53.080;7.428;2023-04-25T08:34:41;1.87;;;0.83;;
13185;SDS011;6658;53.080;7.428;2023-04-25T08:37:08;1.53;;;0.97;;
13185;SDS011;6658;53.080;7.428;2023-04-25T08:39:35;3.00;;;1.03;;
13185;SDS011;6658;53.080;7.428;2023-04-25T08:42:02;5.70;;;0.90;;
13185;SDS011;6658;53.080;7.428;2023-04-25T08:44:33;1.63;;;0.70;;
13185;SDS011;6658;53.080;7.428;2023-04-25T08:47:01;0.50;;;0.23;;
13185;SDS011;6658;53.080;7.428;2023-04-25T08:49:29;2.77;;;0.70;;
13185;SDS011;6658;53.080;7.428;2023-04-25T08:51:59;4.37;;;0.90;;
13185;SDS011;6658;53.080;7.428;2023-04-25T08:54:27;1.33;;;0.53;;
13185;SDS011;6658;53.080;7.428;2023-04-25T08:56:54;1.80;;;0.70;;
13185;SDS011;6658;53.080;7.428;2023-04-25T08:59:20;4.13;;;0.60;;
13185;SDS011;6658;53.080;7.428;2023-04-25T09:01:48;1.63;;;0.67;;
13185;SDS011;6658;53.080;7.428;2023-04-25T09:04:15;2.47;;;0.63;;
13185;SDS011;6658;53.080;7.428;2023-04-25T09:06:41;3.10;;;0.90;;
13185;SDS011;6658;53.080;7.428;2023-04-25T09:09:07;4.23;;;1.27;;
13185;SDS011;6658;53.080;7.428;2023-04-25T09:11:35;4.37;;;0.87;;
13185;SDS011;6658;53.080;7.428;2023-04-25T09:14:21;1.47;;;0.47;;
13185;SDS011;6658;53.080;7.428;2023-04-25T09:16:57;2.20;;;0.80;;
13185;SDS011;6658;53.080;7.428;2023-04-25T09:19:29;2.10;;;0.50;;
13185;SDS011;6658;53.080;7.428;2023-04-25T09:22:04;2.57;;;0.93;;
13185;SDS011;6658;53.080;7.428;2023-04-25T09:24:40;3.37;;;0.87;;
13185;SDS011;6658;53.080;7.428;2023-04-25T09:27:11;4.03;;;1.80;;
13185;SDS011;6658;53.080;7.428;2023-04-25T09:29:39;1.87;;;0.83;;
13185;SDS011;6658;53.080;7.428;2023-04-25T09:32:18;1.60;;;1.27;;
13185;SDS011;6658;53.080;7.428;2023-04-25T09:34:46;4.63;;;1.57;;
13185;SDS011;6658;53.080;7.428;2023-04-25T09:37:17;3.50;;;1.00;;
13185;SDS011;6658;53.080;7.428;2023-04-25T09:39:46;4.47;;;1.10;;
13185;SDS011;6658;53.080;7.428;2023-04-25T09:42:13;2.60;;;0.90;;
13185;SDS011;6658;53.080;7.428;2023-04-25T09:44:44;1.87;;;0.90;;
13185;SDS011;6658;53.080;7.428;2023-04-25T09:47:12;1.73;;;0.90;;
13185;SDS011;6658;53.080;7.428;2023-04-25T09:49:40;2.93;;;0.80;;
13185;SDS011;6658;53.080;7.428;2023-04-25T09:52:07;1.90;;;0.87;;
13185;SDS011;6658;53.080;7.428;2023-04-25T09:54:33;5.63;;;0.97;;
13185;SDS011;6658;53.080;7.428;2023-04-25T09:57:02;1.83;;;0.67;;
13185;SDS011;6658;53.080;7.428;2023-04-25T09:59:38;2.60;;;1.00;;
13185;SDS011;6658;53.080;7.428;2023-04-25T10:02:07;2.20;;;0.77;;
13185;SDS011;6658;53.080;7.428;2023-04-25T10:04:34;1.23;;;0.60;;
13185;SDS011;6658;53.080;7.428;2023-04-25T10:07:02;1.83;;;0.90;;
13185;SDS011;6658;53.080;7.428;2023-04-25T10:09:30;1.63;;;0.73;;
13185;SDS011;6658;53.080;7.428;2023-04-25T10:11:59;5.87;;;1.43;;
13185;SDS011;6658;53.080;7.428;2023-04-25T10:14:26;3.20;;;1.20;;
13185;SDS011;6658;53.080;7.428;2023-04-25T10:16:53;3.20;;;1.10;;
13185;SDS011;6658;53.080;7.428;2023-04-25T10:19:20;2.07;;;1.03;;
13185;SDS011;6658;53.080;7.428;2023-04-25T10:21:51;0.43;;;0.40;;
13185;SDS011;6658;53.080;7.428;2023-04-25T10:24:20;2.63;;;0.60;;
13185;SDS011;6658;53.080;7.428;2023-04-25T10:26:47;1.43;;;0.80;;
13185;SDS011;6658;53.080;7.428;2023-04-25T10:29:21;3.30;;;0.93;;
13185;SDS011;6658;53.080;7.428;2023-04-25T10:31:48;2.07;;;0.90;;
13185;SDS011;6658;53.080;7.428;2023-04-25T10:34:15;1.90;;;1.10;;
13185;SDS011;6658;53.080;7.428;2023-04-25T10:36:42;5.33;;;1.33;;
13185;SDS011;6658;53.080;7.428;2023-04-25T10:39:08;1.83;;;0.50;;
13185;SDS011;6658;53.080;7.428;2023-04-25T10:41:46;2.53;;;1.13;;
13185;SDS011;6658;53.080;7.428;2023-04-25T10:44:17;2.77;;;1.23;;
13185;SDS011;6658;53.080;7.428;2023-04-25T10:46:44;2.20;;;1.10;;
13185;SDS011;6658;53.080;7.428;2023-04-25T10:49:10;3.43;;;1.00;;
13185;SDS011;6658;53.080;7.428;2023-04-25T10:57:30;1.23;;;0.50;;
13185;SDS011;6658;53.080;7.428;2023-04-25T11:00:00;2.30;;;0.83;;
13185;SDS011;6658;53.080;7.428;2023-04-25T11:02:30;2.20;;;0.70;;
13185;SDS011;6658;53.080;7.428;2023-04-25T11:04:56;1.90;;;0.60;;
13185;SDS011;6658;53.080;7.428;2023-04-25T11:10:00;3.60;;;1.10;;
13185;SDS011;6658;53.080;7.428;2023-04-25T11:12:27;3.83;;;0.70;;
13185;SDS011;6658;53.080;7.428;2023-04-25T11:15:00;1.73;;;0.70;;
13185;SDS011;6658;53.080;7.428;2023-04-25T11:17:30;2.00;;;0.90;;
13185;SDS011;6658;53.080;7.428;2023-04-25T11:19:55;4.13;;;1.17;;
13185;SDS011;6658;53.080;7.428;2023-04-25T11:22:22;1.53;;;0.97;;
13185;SDS011;6658;53.080;7.428;2023-04-25T11:24:48;2.87;;;0.90;;
13185;SDS011;6658;53.080;7.428;2023-04-25T11:27:14;1.00;;;0.47;;
13185;SDS011;6658;53.080;7.428;2023-04-25T11:29:40;1.77;;;0.60;;
13185;SDS011;6658;53.080;7.428;2023-04-25T11:32:09;1.90;;;0.70;;
13185;SDS011;6658;53.080;7.428;2023-04-25T11:34:35;1.80;;;0.57;;
13185;SDS011;6658;53.080;7.428;2023-04-25T11:37:01;4.20;;;1.10;;
13185;SDS011;6658;53.080;7.428;2023-04-25T11:39:27;4.53;;;1.10;;
13185;SDS011;6658;53.080;7.428;2023-04-25T11:41:54;4.60;;;1.00;;
13185;SDS011;6658;53.080;7.428;2023-04-25T11:44:20;5.97;;;1.60;;
13185;SDS011;6658;53.080;7.428;2023-04-25T11:46:46;2.30;;;0.97;;
13185;SDS011;6658;53.080;7.428;2023-04-25T11:49:13;1.13;;;0.60;;
13185;SDS011;6658;53.080;7.428;2023-04-25T11:54:09;2.37;;;0.90;;
13185;SDS011;6658;53.080;7.428;2023-04-25T11:56:36;4.37;;;0.90;;
13185;SDS011;6658;53.080;7.428;2023-04-25T11:59:03;2.23;;;0.70;;
13185;SDS011;6658;53.080;7.428;2023-04-25T12:01:31;2.90;;;1.17;;
13185;SDS011;6658;53.080;7.428;2023-04-25T12:04:18;2.20;;;0.90;;
13185;SDS011;6658;53.080;7.428;2023-04-25T12:06:46;4.10;;;0.90;;
13185;SDS011;6658;53.080;7.428;2023-04-25T12:09:13;2.53;;;0.97;;
13185;SDS011;6658;53.080;7.428;2023-04-25T12:14:31;2.87;;;1.20;;
13185;SDS011;6658;53.080;7.428;2023-04-25T12:16:59;2.83;;;0.70;;
13185;SDS011;6658;53.080;7.428;2023-04-25T12:19:27;3.33;;;1.70;;
13185;SDS011;6658;53.080;7.428;2023-04-25T12:22:01;3.60;;;0.90;;
13185;SDS011;6658;53.080;7.428;2023-04-25T12:24:32;3.70;;;1.20;;
13185;SDS011;6658;53.080;7.428;2023-04-25T12:27:02;3.87;;;1.07;;
13185;SDS011;6658;53.080;7.428;2023-04-25T12:29:30;5.00;;;1.10;;
13185;SDS011;6658;53.080;7.428;2023-04-25T12:31:57;2.73;;;0.83;;
13185;SDS011;6658;53.080;7.428;2023-04-25T12:34:24;2.87;;;0.70;;
13185;SDS011;6658;53.080;7.428;2023-04-25T12:36:51;1.37;;;0.60;;
13185;SDS011;6658;53.080;7.428;2023-04-25T12:39:17;2.53;;;0.80;;
13185;SDS011;6658;53.080;7.428;2023-04-25T12:41:44;2.77;;;1.00;;
13185;SDS011;6658;53.080;7.428;2023-04-25T12:44:11;4.63;;;1.07;;
13185;SDS011;6658;53.080;7.428;2023-04-25T12:46:37;4.87;;;1.30;;
13185;SDS011;6658;53.080;7.428;2023-04-25T12:49:03;3.57;;;0.70;;
13185;SDS011;6658;53.080;7.428;2023-04-25T12:51:29;2.03;;;1.03;;
13185;SDS011;6658;53.080;7.428;2023-04-25T12:53:57;3.70;;;1.07;;
13185;SDS011;6658;53.080;7.428;2023-04-25T12:56:24;1.47;;;0.87;;
13185;SDS011;6658;53.080;7.428;2023-04-25T12:58:51;2.80;;;0.50;;
13185;SDS011;6658;53.080;7.428;2023-04-25T13:01:17;1.00;;;0.50;;
13185;SDS011;6658;53.080;7.428;2023-04-25T13:03:43;1.63;;;0.60;;
13185;SDS011;6658;53.080;7.428;2023-04-25T13:06:09;1.77;;;0.90;;
13185;SDS011;6658;53.080;7.428;2023-04-25T13:08:35;4.60;;;0.70;;
13185;SDS011;6658;53.080;7.428;2023-04-25T13:11:02;3.17;;;0.60;;
13185;SDS011;6658;53.080;7.428;2023-04-25T13:13:28;1.50;;;0.60;;
13185;SDS011;6658;53.080;7.428;2023-04-25T13:15:54;3.00;;;0.80;;
13185;SDS011;6658;53.080;7.428;2023-04-25T13:18:20;2.53;;;0.67;;
13185;SDS011;6658;53.080;7.428;2023-04-25T13:20:46;0.93;;;0.70;;
13185;SDS011;6658;53.080;7.428;2023-04-25T13:23:11;1.80;;;0.73;;
13185;SDS011;6658;53.080;7.428;2023-04-25T13:25:37;2.53;;;1.30;;
13185;SDS011;6658;53.080;7.428;2023-04-25T13:28:03;3.53;;;1.00;;
13185;SDS011;6658;53.080;7.428;2023-04-25T13:30:29;2.50;;;0.83;;
13185;SDS011;6658;53.080;7.428;2023-04-25T13:32:55;3.30;;;1.03;;
13185;SDS011;6658;53.080;7.428;2023-04-25T13:35:22;1.23;;;0.50;;
13185;SDS011;6658;53.080;7.428;2023-04-25T13:37:48;3.60;;;0.70;;
13185;SDS011;6658;53.080;7.428;2023-04-25T13:40:13;2.83;;;0.90;;
13185;SDS011;6658;53.080;7.428;2023-04-25T13:42:39;3.33;;;1.10;;
13185;SDS011;6658;53.080;7.428;2023-04-25T13:45:06;6.67;;;1.57;;
13185;SDS011;6658;53.080;7.428;2023-04-25T13:47:32;3.60;;;1.10;;
13185;SDS011;6658;53.080;7.428;2023-04-25T13:49:59;4.33;;;1.10;;
13185;SDS011;6658;53.080;7.428;2023-04-25T13:52:25;3.90;;;0.97;;
13185;SDS011;6658;53.080;7.428;2023-04-25T13:54:52;3.40;;;1.30;;
13185;SDS011;6658;53.080;7.428;2023-04-25T13:57:18;3.67;;;1.43;;
13185;SDS011;6658;53.080;7.428;2023-04-25T13:59:44;2.57;;;0.73;;
13185;SDS011;6658;53.080;7.428;2023-04-25T14:02:11;1.27;;;0.83;;
13185;SDS011;6658;53.080;7.428;2023-04-25T14:04:37;0.67;;;0.50;;
13185;SDS011;6658;53.080;7.428;2023-04-25T14:07:02;1.60;;;0.40;;
13185;SDS011;6658;53.080;7.428;2023-04-25T14:09:29;4.40;;;0.80;;
13185;SDS011;6658;53.080;7.428;2023-04-25T14:11:55;3.60;;;0.80;;
13185;SDS011;6658;53.080;7.428;2023-04-25T14:14:21;2.50;;;0.87;;
13185;SDS011;6658;53.080;7.428;2023-04-25T14:16:48;1.37;;;0.50;;
13185;SDS011;6658;53.080;7.428;2023-04-25T14:19:15;2.13;;;0.50;;
13185;SDS011;6658;53.080;7.428;2023-04-25T14:21:41;3.60;;;0.90;;
13185;SDS011;6658;53.080;7.428;2023-04-25T14:24:10;17.83;;;1.20;;
13185;SDS011;6658;53.080;7.428;2023-04-25T14:26:36;3.07;;;0.70;;
13185;SDS011;6658;53.080;7.428;2023-04-25T14:29:03;3.27;;;0.67;;
13185;SDS011;6658;53.080;7.428;2023-04-25T14:31:32;2.03;;;1.07;;
13185;SDS011;6658;53.080;7.428;2023-04-25T14:33:58;1.50;;;0.60;;
13185;SDS011;6658;53.080;7.428;2023-04-25T14:36:24;3.60;;;1.23;;
13185;SDS011;6658;53.080;7.428;2023-04-25T14:38:51;1.83;;;0.73;;
13185;SDS011;6658;53.080;7.428;2023-04-25T14:41:17;1.67;;;0.70;;
13185;SDS011;6658;53.080;7.428;2023-04-25T14:43:43;1.50;;;0.80;;
13185;SDS011;6658;53.080;7.428;2023-04-25T14:46:10;1.87;;;0.97;;
13185;SDS011;6658;53.080;7.428;2023-04-25T14:48:36;2.10;;;0.47;;
13185;SDS011;6658;53.080;7.428;2023-04-25T14:51:02;2.43;;;1.10;;
13185;SDS011;6658;53.080;7.428;2023-04-25T14:53:28;2.17;;;1.00;;
13185;SDS011;6658;53.080;7.428;2023-04-25T14:55:53;3.77;;;0.87;;
13185;SDS011;6658;53.080;7.428;2023-04-25T14:58:20;1.93;;;0.50;;
13185;SDS011;6658;53.080;7.428;2023-04-25T15:00:46;1.20;;;0.50;;
13185;SDS011;6658;53.080;7.428;2023-04-25T15:03:12;4.13;;;1.00;;
13185;SDS011;6658;53.080;7.428;2023-04-25T15:05:38;1.40;;;0.70;;
13185;SDS011;6658;53.080;7.428;2023-04-25T15:08:05;1.50;;;0.70;;
13185;SDS011;6658;53.080;7.428;2023-04-25T15:10:31;2.77;;;0.50;;
13185;SDS011;6658;53.080;7.428;2023-04-25T15:12:57;1.77;;;0.70;;
13185;SDS011;6658;53.080;7.428;2023-04-25T15:15:23;3.10;;;1.00;;